Terminal Aerodrome Forecast
Issued by NWS Topeka, KS

Home | Current Version | Previous Version | Text Only | Print | Product List | Glossary On
Versions: 1 2 3 4 5 6 7 8 9 10 11 12 13 14 15 16 17 18 19 20 21 22 23 24 25
000
FTUS43 KTOP 211731
TAFTOP
TAF
KTOP 211731Z 2118/2218 19005KT P6SM FEW250
     FM212300 09003KT P6SM BKN090
     FM220200 05003KT 5SM BR VCSH OVC040
     FM220900 36008KT 3SM BR SCT012 OVC035
     FM221500 34011KT P6SM SCT100=

USA.gov is the U.S. government's official web portal to all federal, state and local government web resources and services.